createdAt,value
2022-10-14T00:02:01.159Z,12.52
2022-10-14T00:04:28.015Z,12.59
2022-10-14T00:06:54.660Z,12.50
2022-10-14T00:09:21.263Z,12.55
2022-10-14T00:11:48.051Z,12.53
2022-10-14T00:14:18.516Z,12.42
2022-10-14T00:16:48.096Z,12.45
2022-10-14T00:19:15.708Z,12.43
2022-10-14T00:21:45.458Z,12.38
2022-10-14T00:24:14.474Z,12.44
2022-10-14T00:26:41.575Z,12.41
2022-10-14T00:29:13.383Z,12.42
2022-10-14T00:31:40.395Z,12.35
2022-10-14T00:34:07.131Z,12.35
2022-10-14T00:36:33.900Z,12.38
2022-10-14T00:39:00.561Z,12.47
2022-10-14T00:41:30.932Z,12.33
2022-10-14T00:44:12.876Z,12.39
2022-10-14T00:46:48.531Z,12.36
2022-10-14T00:49:18.075Z,12.38
2022-10-14T00:52:17.336Z,12.35
2022-10-14T00:55:19.747Z,12.25
2022-10-14T00:57:46.591Z,12.05
2022-10-14T01:00:16.475Z,12.04
2022-10-14T01:02:43.264Z,12.08
2022-10-14T01:05:13.158Z,11.97
2022-10-14T01:07:59.788Z,12.05
2022-10-14T01:10:36.696Z,12.00
2022-10-14T01:13:22.065Z,12.02
2022-10-14T01:16:03.793Z,12.00
2022-10-14T01:18:52.332Z,11.96
2022-10-14T01:21:28.004Z,11.93
2022-10-14T01:24:13.112Z,11.86
2022-10-14T01:26:48.990Z,11.87
2022-10-14T01:29:34.083Z,11.84
2022-10-14T01:32:06.585Z,11.83
2022-10-14T01:34:41.654Z,11.81
2022-10-14T01:37:15.397Z,11.79
2022-10-14T01:39:51.186Z,11.79
2022-10-14T01:42:26.217Z,11.72
2022-10-14T01:44:59.571Z,11.74
2022-10-14T01:47:31.313Z,11.71
2022-10-14T01:50:02.626Z,11.70
2022-10-14T01:52:37.783Z,11.60
2022-10-14T01:55:11.610Z,11.59
2022-10-14T01:57:41.912Z,11.65
2022-10-14T02:00:09.398Z,11.62
2022-10-14T02:02:38.091Z,11.52
2022-10-14T02:05:10.970Z,11.56
2022-10-14T02:07:42.999Z,11.50
2022-10-14T02:10:12.824Z,11.56
2022-10-14T02:13:16.380Z,11.57
2022-10-14T02:16:06.491Z,11.54
2022-10-14T02:18:57.620Z,11.53
2022-10-14T02:21:30.218Z,11.50
2022-10-14T02:24:14.268Z,11.48
2022-10-14T02:26:42.354Z,11.52
2022-10-14T02:29:09.186Z,11.50
2022-10-14T02:31:40.230Z,11.50
2022-10-14T02:34:12.088Z,11.52
2022-10-14T02:36:41.850Z,11.43
2022-10-14T02:39:11.917Z,11.42
2022-10-14T02:41:39.007Z,11.39
2022-10-14T02:44:06.670Z,11.39
2022-10-14T02:46:34.744Z,11.33
2022-10-14T02:49:01.664Z,11.29
2022-10-14T02:51:28.486Z,11.29
2022-10-14T02:53:56.326Z,11.29
2022-10-14T02:56:23.146Z,11.29
2022-10-14T02:58:49.804Z,11.30
2022-10-14T03:01:16.401Z,11.21
2022-10-14T03:03:43.156Z,11.24
2022-10-14T03:06:10.104Z,11.15
2022-10-14T03:08:36.905Z,11.13
2022-10-14T03:11:03.643Z,10.94
2022-10-14T03:13:30.580Z,11.06
2022-10-14T03:15:58.627Z,11.08
2022-10-14T03:18:25.818Z,11.12
2022-10-14T03:20:52.473Z,11.08
2022-10-14T03:23:19.125Z,10.93
2022-10-14T03:25:46.853Z,11.00
2022-10-14T03:28:13.714Z,10.93
2022-10-14T03:30:40.761Z,10.89
2022-10-14T03:33:08.416Z,10.85
2022-10-14T03:35:35.398Z,10.77
2022-10-14T03:38:03.486Z,10.79
2022-10-14T03:40:30.713Z,10.78
2022-10-14T03:43:01.462Z,10.73
2022-10-14T03:45:28.805Z,10.75
2022-10-14T03:47:56.050Z,10.79
2022-10-14T03:50:23.198Z,10.72
2022-10-14T03:52:54.616Z,10.66
2022-10-14T03:55:22.389Z,10.76
2022-10-14T03:57:49.143Z,10.71
2022-10-14T04:00:16.167Z,10.69
2022-10-14T04:02:42.977Z,10.55
2022-10-14T04:05:10.409Z,10.59
2022-10-14T04:07:37.330Z,10.68
2022-10-14T04:10:04.286Z,10.69
2022-10-14T04:12:30.945Z,10.67
2022-10-14T04:14:57.759Z,10.55
2022-10-14T04:17:25.538Z,10.65
2022-10-14T04:19:53.314Z,10.64
2022-10-14T04:22:20.413Z,10.74
2022-10-14T04:24:47.205Z,10.73
2022-10-14T04:27:13.833Z,10.78
2022-10-14T04:29:40.480Z,10.76
2022-10-14T04:32:07.252Z,10.82
2022-10-14T04:34:33.966Z,10.83
2022-10-14T04:37:00.611Z,10.90
2022-10-14T04:39:27.205Z,10.93
2022-10-14T04:41:53.859Z,10.90
2022-10-14T04:44:20.499Z,10.86
2022-10-14T04:46:47.221Z,10.82
2022-10-14T04:49:14.907Z,10.80
2022-10-14T04:51:41.621Z,10.82
2022-10-14T04:54:08.458Z,10.78
2022-10-14T04:56:35.106Z,10.83
2022-10-14T04:59:02.140Z,10.87
2022-10-14T05:01:33.635Z,10.85
2022-10-14T05:04:00.717Z,10.86
2022-10-14T05:06:27.521Z,10.86
2022-10-14T05:08:54.301Z,10.88
2022-10-14T05:11:21.235Z,10.84
2022-10-14T05:13:47.980Z,10.93
2022-10-14T05:16:14.665Z,10.90
2022-10-14T05:18:41.527Z,10.87
2022-10-14T05:21:08.250Z,10.92
2022-10-14T05:23:34.910Z,10.99
2022-10-14T05:26:01.529Z,10.98
2022-10-14T05:28:28.180Z,11.01
2022-10-14T05:30:55.819Z,11.00
2022-10-14T05:33:22.600Z,10.96
2022-10-14T05:36:04.635Z,10.89
2022-10-14T05:38:33.157Z,10.97
2022-10-14T05:41:00.859Z,10.91
2022-10-14T05:43:32.174Z,10.90
2022-10-14T05:45:59.759Z,10.93
2022-10-14T05:48:26.396Z,11.04
2022-10-14T05:50:53.240Z,11.12
2022-10-14T05:53:20.310Z,11.25
2022-10-14T05:55:46.924Z,11.26
2022-10-14T05:58:13.511Z,11.33
2022-10-14T06:00:40.180Z,11.28
2022-10-14T06:03:06.916Z,11.36
2022-10-14T06:05:36.687Z,11.31
2022-10-14T06:08:03.286Z,11.35
2022-10-14T06:10:29.917Z,11.32
2022-10-14T06:12:57.350Z,11.33
2022-10-14T06:15:24.033Z,11.39
2022-10-14T06:17:50.838Z,11.48
2022-10-14T06:20:17.569Z,11.51
2022-10-14T06:22:44.288Z,11.54
2022-10-14T06:25:11.077Z,11.52
2022-10-14T06:27:37.708Z,11.74
2022-10-14T06:30:04.900Z,11.71
2022-10-14T06:32:31.524Z,11.96
2022-10-14T06:34:58.371Z,11.80
2022-10-14T06:37:25.230Z,11.86
2022-10-14T06:39:51.997Z,12.02
2022-10-14T06:42:18.677Z,12.08
2022-10-14T06:44:45.405Z,12.15
2022-10-14T06:47:12.317Z,12.16
2022-10-14T06:49:38.994Z,12.26
2022-10-14T06:52:05.705Z,12.35
2022-10-14T06:54:36.769Z,12.25
2022-10-14T06:57:06.294Z,12.16
2022-10-14T06:59:32.981Z,12.00
2022-10-14T07:01:59.666Z,11.95
2022-10-14T07:04:26.489Z,12.11
2022-10-14T07:06:53.223Z,12.20
2022-10-14T07:09:20.249Z,12.09
2022-10-14T07:11:47.227Z,12.12
2022-10-14T07:14:13.871Z,12.18
2022-10-14T07:16:43.400Z,12.51
2022-10-14T07:19:10.109Z,12.54
2022-10-14T07:21:36.947Z,12.68
2022-10-14T07:24:03.971Z,12.64
2022-10-14T07:26:31.531Z,12.68
2022-10-14T07:28:58.724Z,12.72
2022-10-14T07:31:26.322Z,12.80
2022-10-14T07:33:53.200Z,13.10
2022-10-14T07:36:22.608Z,13.06
2022-10-14T07:38:50.177Z,13.12
2022-10-14T07:41:20.302Z,13.11
2022-10-14T07:43:53.304Z,13.09
2022-10-14T07:46:34.608Z,13.09
2022-10-14T07:49:10.803Z,13.33
2022-10-14T07:51:38.961Z,13.42
2022-10-14T07:54:09.989Z,13.43
2022-10-14T07:56:37.895Z,13.34
2022-10-14T07:59:05.020Z,13.31
2022-10-14T08:01:32.180Z,13.21
2022-10-14T08:03:59.080Z,13.28
2022-10-14T08:06:26.117Z,13.49
2022-10-14T08:08:53.076Z,13.29
2022-10-14T08:11:26.063Z,13.40
2022-10-14T08:13:53.573Z,13.50
2022-10-14T08:16:26.040Z,13.57
2022-10-14T08:18:55.184Z,13.93
2022-10-14T08:21:21.880Z,14.03
2022-10-14T08:23:49.317Z,13.99
2022-10-14T08:26:21.047Z,13.92
2022-10-14T08:28:48.886Z,13.85
2022-10-14T08:31:16.284Z,13.75
2022-10-14T08:33:43.171Z,13.74
2022-10-14T08:36:10.013Z,13.78
2022-10-14T08:38:36.623Z,13.88
2022-10-14T08:41:12.481Z,13.91
2022-10-14T08:43:51.187Z,14.13
2022-10-14T08:46:31.192Z,13.90
2022-10-14T08:49:27.153Z,13.88
2022-10-14T08:52:01.265Z,13.81
2022-10-14T08:54:44.416Z,13.91
2022-10-14T08:57:21.116Z,13.72
2022-10-14T08:59:48.579Z,13.76
2022-10-14T09:02:30.988Z,13.88
2022-10-14T09:05:00.240Z,14.26
2022-10-14T09:07:27.165Z,14.33
2022-10-14T09:09:58.569Z,14.30
2022-10-14T09:12:29.900Z,14.46
2022-10-14T09:15:07.896Z,14.63
2022-10-14T09:17:46.027Z,14.67
2022-10-14T09:20:22.242Z,14.71
2022-10-14T09:23:05.476Z,14.79
2022-10-14T09:25:37.538Z,14.45
2022-10-14T09:28:04.255Z,14.19
2022-10-14T09:30:38.062Z,14.19
2022-10-14T09:33:05.804Z,14.21
2022-10-14T09:35:41.289Z,14.22
2022-10-14T09:38:08.383Z,14.37
2022-10-14T09:40:47.676Z,14.45
2022-10-14T09:43:19.520Z,14.57
2022-10-14T09:45:57.090Z,14.81
2022-10-14T09:48:42.677Z,14.98
2022-10-14T09:51:18.117Z,15.01
2022-10-14T09:53:49.219Z,15.11
2022-10-14T09:56:18.053Z,15.39
2022-10-14T09:58:51.056Z,15.15
2022-10-14T10:01:21.588Z,15.14
2022-10-14T10:03:49.860Z,15.08
2022-10-14T10:06:27.175Z,15.07
2022-10-14T10:08:53.710Z,15.47
2022-10-14T10:11:28.321Z,15.40
2022-10-14T10:13:55.257Z,15.10
2022-10-14T10:16:28.126Z,14.80
2022-10-14T10:18:56.207Z,14.94
2022-10-14T10:21:26.382Z,14.97
2022-10-14T10:23:59.267Z,14.77
2022-10-14T10:26:30.700Z,14.92
2022-10-14T10:28:58.497Z,14.84
2022-10-14T10:32:06.550Z,14.88
2022-10-14T10:34:59.405Z,14.98
2022-10-14T10:37:30.061Z,15.27
2022-10-14T10:40:26.952Z,15.11
2022-10-14T10:43:21.796Z,15.31
2022-10-14T10:45:50.078Z,15.49
2022-10-14T10:48:29.527Z,15.60
2022-10-14T10:51:08.010Z,15.95
2022-10-14T10:53:40.956Z,15.63
2022-10-14T10:56:22.585Z,15.61
2022-10-14T10:59:16.889Z,15.36
2022-10-14T11:02:38.397Z,15.36
2022-10-14T11:05:12.568Z,15.87
2022-10-14T11:08:38.797Z,16.19
2022-10-14T11:11:39.524Z,16.27
2022-10-14T11:14:08.787Z,16.20
2022-10-14T11:17:04.912Z,15.97
2022-10-14T11:19:46.988Z,16.32
2022-10-14T11:22:20.348Z,16.68
2022-10-14T11:25:18.128Z,16.85
2022-10-14T11:27:57.322Z,16.37
2022-10-14T11:30:27.886Z,15.98
2022-10-14T11:33:37.387Z,15.94
2022-10-14T11:36:43.931Z,16.06
2022-10-14T11:39:22.722Z,16.14
2022-10-14T11:42:11.416Z,16.28
2022-10-14T11:44:39.952Z,15.99
2022-10-14T11:47:28.194Z,16.08
2022-10-14T11:50:11.721Z,15.95
2022-10-14T11:53:13.294Z,16.07
2022-10-14T11:55:46.499Z,16.20
2022-10-14T11:58:24.139Z,16.17
2022-10-14T12:01:00.869Z,15.99
2022-10-14T12:03:37.035Z,15.69
2022-10-14T12:06:21.355Z,15.83
2022-10-14T12:08:55.685Z,16.03
2022-10-14T12:11:45.497Z,16.06
2022-10-14T12:14:20.583Z,15.99
2022-10-14T12:16:49.271Z,16.29
2022-10-14T12:19:27.695Z,16.22
2022-10-14T12:22:14.860Z,16.21
2022-10-14T12:24:45.424Z,16.22
2022-10-14T12:27:14.764Z,16.13
2022-10-14T12:29:44.657Z,15.99
2022-10-14T12:32:19.724Z,16.14
2022-10-14T12:35:01.784Z,16.14
2022-10-14T12:37:35.471Z,16.07
2022-10-14T12:40:02.496Z,16.22
2022-10-14T12:42:30.997Z,16.28
2022-10-14T12:45:01.571Z,16.08
2022-10-14T12:47:35.382Z,16.12
2022-10-14T12:50:14.992Z,16.40
2022-10-14T12:52:46.495Z,16.51
2022-10-14T12:55:17.534Z,16.20
2022-10-14T12:57:44.820Z,16.37
2022-10-14T13:00:24.106Z,16.57
2022-10-14T13:02:56.418Z,16.32
2022-10-14T13:05:37.141Z,15.96
2022-10-14T13:08:27.495Z,15.91
2022-10-14T13:10:59.852Z,16.10
2022-10-14T13:13:49.469Z,16.02
2022-10-14T13:16:16.143Z,16.12
2022-10-14T13:18:42.690Z,16.17
2022-10-14T13:21:21.120Z,16.06
2022-10-14T13:23:51.517Z,15.93
2022-10-14T13:26:20.890Z,15.86
2022-10-14T13:28:53.696Z,15.87
2022-10-14T13:31:26.766Z,15.63
2022-10-14T13:34:05.332Z,15.73
2022-10-14T13:36:39.229Z,15.45
2022-10-14T13:39:06.040Z,15.48
2022-10-14T13:41:34.623Z,15.63
2022-10-14T13:44:02.416Z,15.65
2022-10-14T13:46:41.144Z,15.70
2022-10-14T13:51:52.963Z,15.78
2022-10-14T13:54:23.482Z,15.76
2022-10-14T14:02:35.873Z,15.49
2022-10-14T14:05:02.580Z,15.42
2022-10-14T14:10:24.447Z,15.23
2022-10-14T14:12:51.783Z,15.24
2022-10-14T14:15:24.828Z,15.22
2022-10-14T14:17:52.233Z,15.27
2022-10-14T14:20:22.035Z,15.31
2022-10-14T14:22:48.769Z,15.23
2022-10-14T14:25:35.740Z,15.22
2022-10-14T14:28:06.116Z,15.11
2022-10-14T14:30:37.748Z,15.13
2022-10-14T14:33:10.924Z,15.09
2022-10-14T14:35:37.893Z,15.03
2022-10-14T14:38:04.755Z,15.01
2022-10-14T14:40:32.193Z,14.97
2022-10-14T14:43:04.747Z,14.90
2022-10-14T14:45:35.405Z,14.93
2022-10-14T14:48:04.930Z,14.96
2022-10-14T14:50:43.142Z,14.98
2022-10-14T14:53:18.266Z,14.97
2022-10-14T14:55:54.057Z,14.98
2022-10-14T14:58:49.290Z,14.95
2022-10-14T15:01:25.050Z,14.95
2022-10-14T15:04:12.100Z,14.64
2022-10-14T15:07:01.813Z,14.76
2022-10-14T15:09:43.510Z,14.62
2022-10-14T15:12:17.369Z,14.53
2022-10-14T15:14:51.077Z,14.50
2022-10-14T15:17:36.378Z,14.41
2022-10-14T15:22:51.758Z,14.42
2022-10-14T15:25:21.244Z,14.37
2022-10-14T15:27:53.451Z,14.36
2022-10-14T15:30:20.490Z,14.40
2022-10-14T15:32:48.254Z,14.35
2022-10-14T15:35:18.330Z,14.25
2022-10-14T15:37:46.082Z,14.11
2022-10-14T15:40:16.129Z,14.05
2022-10-14T15:42:42.792Z,13.98
2022-10-14T15:45:09.952Z,13.92
2022-10-14T15:47:37.235Z,13.78
2022-10-14T15:50:20.427Z,13.78
2022-10-14T15:52:47.052Z,13.58
2022-10-14T15:55:24.941Z,13.48
2022-10-14T15:57:52.923Z,13.28
2022-10-14T16:00:21.536Z,13.18
2022-10-14T16:02:54.374Z,13.09
2022-10-14T16:05:22.202Z,13.14
2022-10-14T16:07:49.769Z,13.02
2022-10-14T16:10:20.725Z,13.04
2022-10-14T16:12:48.438Z,13.08
2022-10-14T16:15:35.974Z,13.12
2022-10-14T16:18:02.913Z,13.13
2022-10-14T16:20:30.854Z,13.09
2022-10-14T16:22:58.478Z,13.22
2022-10-14T16:25:51.853Z,13.22
2022-10-14T16:28:18.879Z,13.20
2022-10-14T16:30:50.274Z,13.11
2022-10-14T16:33:23.957Z,13.11
2022-10-14T16:35:54.834Z,13.19
2022-10-14T16:38:22.725Z,13.21
2022-10-14T16:40:57.893Z,13.13
2022-10-14T16:43:27.597Z,13.12
2022-10-14T16:45:58.289Z,13.16
2022-10-14T16:48:25.574Z,13.09
2022-10-14T16:50:53.489Z,12.98
2022-10-14T16:53:39.129Z,13.13
2022-10-14T16:56:27.081Z,13.14
2022-10-14T16:58:53.693Z,13.14
2022-10-14T17:01:20.621Z,12.97
2022-10-14T17:03:47.403Z,13.00
2022-10-14T17:06:14.055Z,13.00
2022-10-14T17:08:41.934Z,12.92
2022-10-14T17:11:10.183Z,12.91
2022-10-14T17:13:37.771Z,12.91
2022-10-14T17:16:06.015Z,12.81
2022-10-14T17:18:35.025Z,12.79
2022-10-14T17:21:13.675Z,12.66
2022-10-14T17:23:42.346Z,12.52
2022-10-14T17:26:14.253Z,12.53
2022-10-14T17:28:42.020Z,12.53
2022-10-14T17:31:12.390Z,12.57
2022-10-14T17:33:40.264Z,12.39
2022-10-14T17:36:08.209Z,12.46
2022-10-14T17:38:35.891Z,12.49
2022-10-14T17:41:08.117Z,12.38
2022-10-14T17:43:35.035Z,12.34
2022-10-14T17:48:42.320Z,12.01
2022-10-14T17:51:12.988Z,12.07
2022-10-14T17:53:39.957Z,11.95
2022-10-14T17:56:08.727Z,11.86
2022-10-14T17:58:35.852Z,11.64
2022-10-14T18:01:07.972Z,11.58
2022-10-14T18:03:35.696Z,11.54
2022-10-14T18:06:14.528Z,11.51
2022-10-14T18:08:42.963Z,11.60
2022-10-14T18:11:11.231Z,11.55
2022-10-14T18:16:07.763Z,11.50
2022-10-14T18:18:35.078Z,11.45
2022-10-14T18:21:02.976Z,11.48
2022-10-14T18:23:30.762Z,11.51
2022-10-14T18:26:18.321Z,11.41
2022-10-14T18:28:48.307Z,11.40
2022-10-14T18:31:20.431Z,11.38
2022-10-14T18:33:48.149Z,11.35
2022-10-14T18:36:18.418Z,11.23
2022-10-14T18:38:53.163Z,11.00
2022-10-14T18:41:20.737Z,10.84
2022-10-14T18:43:48.112Z,10.88
2022-10-14T18:46:19.981Z,10.94
2022-10-14T18:48:52.070Z,10.92
2022-10-14T18:51:25.660Z,10.86
2022-10-14T18:53:59.141Z,10.91
2022-10-14T18:56:31.836Z,10.99
2022-10-14T18:59:07.102Z,10.98
2022-10-14T19:01:37.009Z,10.98
2022-10-14T19:04:05.567Z,10.88
2022-10-14T19:06:32.921Z,10.63
2022-10-14T19:09:02.899Z,10.77
2022-10-14T19:11:30.321Z,10.82
2022-10-14T19:13:58.389Z,10.82
2022-10-14T19:16:28.203Z,10.85
2022-10-14T19:19:08.272Z,10.79
2022-10-14T19:21:35.310Z,10.84
2022-10-14T19:24:02.922Z,10.91
2022-10-14T19:26:32.184Z,10.88
2022-10-14T19:29:06.364Z,10.90
2022-10-14T19:31:36.245Z,10.88
2022-10-14T19:34:06.140Z,10.84
2022-10-14T19:36:38.606Z,10.74
2022-10-14T19:39:06.985Z,10.72
2022-10-14T19:41:38.421Z,10.71
2022-10-14T19:44:05.457Z,10.61
2022-10-14T19:46:32.165Z,10.61
2022-10-14T19:49:02.328Z,10.50
2022-10-14T19:51:29.248Z,10.35
2022-10-14T19:53:56.422Z,10.16
2022-10-14T19:56:23.359Z,9.97
2022-10-14T19:58:54.687Z,10.08
2022-10-14T20:01:24.391Z,10.00
2022-10-14T20:03:52.045Z,9.96
2022-10-14T20:06:20.435Z,9.97
2022-10-14T20:08:47.027Z,9.97
2022-10-14T20:11:16.481Z,9.93
2022-10-14T20:13:46.436Z,9.87
2022-10-14T20:16:13.465Z,9.79
2022-10-14T20:18:40.493Z,10.01
2022-10-14T20:21:08.719Z,9.88
2022-10-14T20:23:38.132Z,9.97
2022-10-14T20:26:07.401Z,9.97
2022-10-14T20:28:38.262Z,9.95
2022-10-14T20:31:09.900Z,10.00
2022-10-14T20:33:36.772Z,10.01
2022-10-14T20:36:13.738Z,9.91
2022-10-14T20:38:41.292Z,9.95
2022-10-14T20:41:28.180Z,9.91
2022-10-14T20:43:56.264Z,9.87
2022-10-14T20:46:24.945Z,9.83
2022-10-14T20:48:58.323Z,9.92
2022-10-14T20:51:25.480Z,9.88
2022-10-14T20:54:01.662Z,10.01
2022-10-14T20:56:32.887Z,10.08
2022-10-14T20:59:01.988Z,10.06
2022-10-14T21:01:30.023Z,10.01
2022-10-14T21:03:56.836Z,9.95
2022-10-14T21:06:24.820Z,9.97
2022-10-14T21:08:52.352Z,9.95
2022-10-14T21:11:22.265Z,10.02
2022-10-14T21:13:51.403Z,9.99
2022-10-14T21:16:27.065Z,10.02
2022-10-14T21:18:57.903Z,10.06
2022-10-14T21:21:27.522Z,10.09
2022-10-14T21:23:55.523Z,10.10
2022-10-14T21:26:22.801Z,10.12
2022-10-14T21:28:49.808Z,10.14
2022-10-14T21:31:19.031Z,10.13
2022-10-14T21:33:54.491Z,10.09
2022-10-14T21:36:21.374Z,10.11
2022-10-14T21:38:48.137Z,10.14
2022-10-14T21:41:14.776Z,10.13
2022-10-14T21:43:42.042Z,9.92
2022-10-14T21:46:11.542Z,9.93
2022-10-14T21:48:38.549Z,9.79
2022-10-14T21:51:11.558Z,9.84
2022-10-14T21:53:40.310Z,9.84
2022-10-14T21:56:07.642Z,9.89
2022-10-14T21:58:35.819Z,9.87
2022-10-14T22:01:23.135Z,9.87
2022-10-14T22:04:01.623Z,9.89
2022-10-14T22:06:28.729Z,10.00
2022-10-14T22:08:57.646Z,10.03
2022-10-14T22:11:25.800Z,10.07
2022-10-14T22:13:54.029Z,9.96
2022-10-14T22:16:21.293Z,10.05
2022-10-14T22:18:50.673Z,9.95
2022-10-14T22:21:19.949Z,9.92
2022-10-14T22:23:47.879Z,9.99
2022-10-14T22:26:18.625Z,10.04
2022-10-14T22:28:45.811Z,10.01
2022-10-14T22:31:15.643Z,10.10
2022-10-14T22:33:43.215Z,10.18
2022-10-14T22:36:19.401Z,10.15
2022-10-14T22:38:50.136Z,10.12
2022-10-14T22:41:18.120Z,10.09
2022-10-14T22:43:49.507Z,10.02
2022-10-14T22:46:20.153Z,10.01
2022-10-14T22:48:48.423Z,10.05
2022-10-14T22:51:18.004Z,10.02
2022-10-14T22:53:45.766Z,10.07
2022-10-14T22:56:16.504Z,10.08
2022-10-14T22:58:43.406Z,9.99
2022-10-14T23:01:13.564Z,9.96
2022-10-14T23:03:41.179Z,10.07
2022-10-14T23:06:11.083Z,10.12
2022-10-14T23:08:38.123Z,10.11
2022-10-14T23:11:06.453Z,10.09
2022-10-14T23:13:33.774Z,10.13
2022-10-14T23:16:02.729Z,10.14
2022-10-14T23:18:32.795Z,10.12
2022-10-14T23:20:59.536Z,10.10
2022-10-14T23:23:26.147Z,10.23
2022-10-14T23:25:52.907Z,10.13
2022-10-14T23:28:19.628Z,10.12
2022-10-14T23:30:46.451Z,10.20
2022-10-14T23:33:13.173Z,10.17
2022-10-14T23:35:39.846Z,10.24
2022-10-14T23:38:06.555Z,10.17
2022-10-14T23:40:33.712Z,10.24
2022-10-14T23:43:01.202Z,10.26
2022-10-14T23:45:28.175Z,10.30
2022-10-14T23:47:54.903Z,10.27
2022-10-14T23:50:21.676Z,10.18
2022-10-14T23:52:48.424Z,10.18
2022-10-14T23:55:15.230Z,10.14
2022-10-14T23:57:41.887Z,10.21
